Time;durP1;ratioP1;P1;durP2;ratioP2;P2;SDS_P1;SDS_P2;PMS_P1;PMS_P2;Temp;Humidity;BMP_temperature;BMP_pressure;BME280_temperature;BME280_humidity;BME280_pressure;Samples;Min_cycle;Max_cycle;Signal;HPM_P1;HPM_P2
2022/11/21 00:01:26;;;;;;;17.90;8.27;;;;;;;;;;5038806;28;20060;-59
2022/11/21 00:03:53;;;;;;;16.80;7.93;;;;;;;;;;5032406;28;20046;-59
2022/11/21 00:06:22;;;;;;;16.42;7.30;;;;;;;;;;5032455;28;20041;-59
2022/11/21 00:08:50;;;;;;;15.88;8.25;;;;;;;;;;5049457;28;20084;-58
2022/11/21 00:11:20;;;;;;;17.63;8.73;;;;;;;;;;5048161;28;20132;-59
2022/11/21 00:13:48;;;;;;;17.45;7.45;;;;;;;;;;5032423;28;20057;-59
2022/11/21 00:16:18;;;;;;;20.63;8.10;;;;;;;;;;5032218;28;20045;-58
2022/11/21 00:18:45;;;;;;;19.52;8.48;;;;;;;;;;5032180;28;20478;-59
2022/11/21 00:21:14;;;;;;;20.33;8.55;;;;;;;;;;5032497;28;20072;-58
2022/11/21 00:23:47;;;;;;;19.42;8.73;;;;;;;;;;5037396;28;20053;-59
2022/11/21 00:26:16;;;;;;;18.70;8.63;;;;;;;;;;5042889;28;20522;-59
2022/11/21 00:28:44;;;;;;;19.88;10.45;;;;;;;;;;5034855;28;20546;-59
2022/11/21 00:31:21;;;;;;;22.95;9.20;;;;;;;;;;5040395;28;20132;-58
2022/11/21 00:33:51;;;;;;;19.83;9.25;;;;;;;;;;5042350;28;20446;-59
2022/11/21 00:36:18;;;;;;;20.58;9.25;;;;;;;;;;5050409;28;20055;-59
2022/11/21 00:38:53;;;;;;;21.27;9.45;;;;;;;;;;5033222;28;20141;-59
2022/11/21 00:41:23;;;;;;;23.33;9.95;;;;;;;;;;5038880;28;20049;-59
2022/11/21 00:43:50;;;;;;;22.33;9.13;;;;;;;;;;5045154;28;20053;-60
2022/11/21 00:46:19;;;;;;;24.13;10.93;;;;;;;;;;5039616;28;20133;-59
2022/11/21 00:48:46;;;;;;;25.33;11.30;;;;;;;;;;5046001;28;20083;-59
2022/11/21 00:51:15;;;;;;;27.30;10.98;;;;;;;;;;5035081;28;20045;-58
2022/11/21 00:53:43;;;;;;;25.08;10.02;;;;;;;;;;5036380;28;20050;-60
2022/11/21 00:56:20;;;;;;;28.05;11.55;;;;;;;;;;5038597;28;20115;-58
2022/11/21 00:58:49;;;;;;;24.45;10.40;;;;;;;;;;5035373;28;20053;-59
2022/11/21 01:01:18;;;;;;;25.85;10.80;;;;;;;;;;5035636;28;20057;-59
2022/11/21 01:03:45;;;;;;;25.75;11.77;;;;;;;;;;5039014;28;20110;-59
2022/11/21 01:06:21;;;;;;;28.08;11.95;;;;;;;;;;5051855;28;20064;-59
2022/11/21 01:08:49;;;;;;;;;;;;;;;;;;5051468;28;20045;-59
2022/11/21 01:11:18;;;;;;;22.23;9.43;;;;;;;;;;5055588;28;19956;-59
2022/11/21 01:13:47;;;;;;;25.13;10.60;;;;;;;;;;5046058;28;20687;-59
2022/11/21 01:16:16;;;;;;;28.63;12.20;;;;;;;;;;5051781;28;20141;-59
2022/11/21 01:18:42;;;;;;;24.52;11.27;;;;;;;;;;5045818;28;20056;-59
2022/11/21 01:21:13;;;;;;;21.65;10.02;;;;;;;;;;5037485;28;20052;-59
2022/11/21 01:23:40;;;;;;;23.60;9.98;;;;;;;;;;5048407;28;20538;-59
2022/11/21 01:26:14;;;;;;;20.77;9.90;;;;;;;;;;5047277;28;20041;-59
2022/11/21 01:28:43;;;;;;;20.13;9.35;;;;;;;;;;5048627;28;20054;-58
2022/11/21 01:31:19;;;;;;;22.80;10.15;;;;;;;;;;5048206;28;20357;-57
2022/11/21 01:33:47;;;;;;;21.77;9.27;;;;;;;;;;5048258;28;20037;-58
2022/11/21 01:36:22;;;;;;;23.58;8.70;;;;;;;;;;5050198;28;20123;-58
2022/11/21 01:38:52;;;;;;;24.05;9.85;;;;;;;;;;5053375;28;20144;-59
2022/11/21 01:41:21;;;;;;;22.45;8.90;;;;;;;;;;5054729;28;20134;-59
2022/11/21 01:44:04;;;;;;;18.05;7.93;;;;;;;;;;5044278;28;20083;-59
2022/11/21 01:46:31;;;;;;;16.52;7.70;;;;;;;;;;5040978;28;20053;-59
2022/11/21 01:49:05;;;;;;;17.65;8.43;;;;;;;;;;5045264;28;20549;-59
2022/11/21 01:51:34;;;;;;;17.95;8.32;;;;;;;;;;5051134;28;20063;-59
2022/11/21 01:54:04;;;;;;;16.63;8.63;;;;;;;;;;5046154;28;20119;-59
2022/11/21 01:56:34;;;;;;;17.67;7.75;;;;;;;;;;5039629;28;20049;-59
2022/11/21 01:59:05;;;;;;;21.85;9.05;;;;;;;;;;5053233;28;20135;-59
2022/11/21 02:01:33;;;;;;;17.35;8.50;;;;;;;;;;5052290;28;20132;-58
2022/11/21 02:04:02;;;;;;;21.23;7.82;;;;;;;;;;5053121;28;20085;-59
2022/11/21 02:06:39;;;;;;;21.70;8.15;;;;;;;;;;5053084;28;20140;-57
2022/11/21 02:09:07;;;;;;;25.15;9.73;;;;;;;;;;5038120;28;20061;-58
2022/11/21 02:11:37;;;;;;;18.40;8.05;;;;;;;;;;5034421;28;20049;-58
2022/11/21 02:14:19;;;;;;;23.38;9.77;;;;;;;;;;5047761;28;20055;-59
2022/11/21 02:16:47;;;;;;;26.08;10.25;;;;;;;;;;5044255;28;20046;-59
2022/11/21 02:19:18;;;;;;;23.48;11.00;;;;;;;;;;5050920;28;20044;-59
2022/11/21 02:21:50;;;;;;;26.17;10.32;;;;;;;;;;5053892;28;20037;-58
2022/11/21 02:24:24;;;;;;;22.83;10.25;;;;;;;;;;5052751;28;20128;-59
2022/11/21 02:26:54;;;;;;;24.85;10.73;;;;;;;;;;5039709;28;20115;-58
2022/11/21 02:29:23;;;;;;;24.95;10.57;;;;;;;;;;5033558;28;20454;-59
2022/11/21 02:31:52;;;;;;;23.90;10.90;;;;;;;;;;5042360;28;20398;-59
2022/11/21 02:34:19;;;;;;;24.45;9.93;;;;;;;;;;5045064;28;20053;-59
2022/11/21 02:36:50;;;;;;;26.92;10.88;;;;;;;;;;5048235;28;20128;-59
2022/11/21 02:39:21;;;;;;;24.65;11.65;;;;;;;;;;5049178;28;20144;-59
2022/11/21 02:42:07;;;;;;;25.80;11.52;;;;;;;;;;5043005;28;20141;-59
2022/11/21 02:44:40;;;;;;;22.52;9.13;;;;;;;;;;5049937;28;20053;-59
2022/11/21 02:47:06;;;;;;;27.38;11.63;;;;;;;;;;5038601;28;20129;-59
2022/11/21 02:49:38;;;;;;;28.17;11.90;;;;;;;;;;5032556;28;20118;-59
2022/11/21 02:52:05;;;;;;;23.75;9.82;;;;;;;;;;5042106;28;20124;-58
2022/11/21 02:54:32;;;;;;;22.52;9.38;;;;;;;;;;5052127;28;20507;-57
2022/11/21 02:56:58;;;;;;;26.45;10.32;;;;;;;;;;5038179;28;20129;-58
2022/11/21 02:59:28;;;;;;;29.02;11.25;;;;;;;;;;5033490;28;20140;-57
2022/11/21 03:02:01;;;;;;;28.00;11.50;;;;;;;;;;5033343;28;20056;-59
2022/11/21 03:04:33;;;;;;;27.50;11.73;;;;;;;;;;5032963;28;20053;-58
2022/11/21 03:07:00;;;;;;;24.95;11.18;;;;;;;;;;5040544;28;20153;-58
2022/11/21 03:09:29;;;;;;;23.48;10.43;;;;;;;;;;5051864;28;20099;-59
2022/11/21 03:11:57;;;;;;;29.73;11.77;;;;;;;;;;5047239;28;20384;-58
2022/11/21 03:14:24;;;;;;;31.20;11.93;;;;;;;;;;5046565;28;20391;-59
2022/11/21 03:16:52;;;;;;;29.88;11.80;;;;;;;;;;5032957;28;20130;-59
2022/11/21 03:19:24;;;;;;;25.77;12.10;;;;;;;;;;5032750;28;20398;-59
2022/11/21 03:21:53;;;;;;;30.50;12.88;;;;;;;;;;5044550;28;20099;-58
2022/11/21 03:24:21;;;;;;;28.92;11.68;;;;;;;;;;5052319;28;20456;-58
2022/11/21 03:26:48;;;;;;;26.65;10.73;;;;;;;;;;5039048;28;20742;-58
2022/11/21 03:29:16;;;;;;;25.42;10.18;;;;;;;;;;5032784;28;20073;-59
2022/11/21 03:31:44;;;;;;;25.45;10.70;;;;;;;;;;5040112;28;20481;-58
2022/11/21 03:34:11;;;;;;;26.77;10.40;;;;;;;;;;5032761;28;20077;-56
2022/11/21 03:36:47;;;;;;;25.42;10.98;;;;;;;;;;5045481;28;20140;-59
2022/11/21 03:39:13;;;;;;;25.95;10.60;;;;;;;;;;5052151;28;20067;-59
2022/11/21 03:41:41;;;;;;;27.42;10.23;;;;;;;;;;5048570;28;20479;-59
2022/11/21 03:44:10;;;;;;;26.85;9.95;;;;;;;;;;5042255;28;20135;-58
2022/11/21 03:46:39;;;;;;;25.00;10.30;;;;;;;;;;5048644;28;20056;-58
2022/11/21 03:49:06;;;;;;;25.88;11.02;;;;;;;;;;5052221;28;20140;-58
2022/11/21 03:51:34;;;;;;;24.48;10.52;;;;;;;;;;5048436;28;20081;-59
2022/11/21 03:54:05;;;;;;;23.77;10.65;;;;;;;;;;5035394;28;20136;-58
2022/11/21 03:56:32;;;;;;;20.73;9.32;;;;;;;;;;5033920;28;20099;-59
2022/11/21 03:58:58;;;;;;;28.25;10.00;;;;;;;;;;5027785;28;20069;-59
2022/11/21 04:01:27;;;;;;;21.83;10.20;;;;;;;;;;5037890;28;20045;-58
2022/11/21 04:03:55;;;;;;;23.35;9.75;;;;;;;;;;5055433;28;20425;-59
2022/11/21 04:06:25;;;;;;;23.15;8.70;;;;;;;;;;5038920;28;20076;-59
2022/11/21 04:08:53;;;;;;;22.05;9.23;;;;;;;;;;5041465;28;20134;-59
2022/11/21 04:11:26;;;;;;;24.13;9.05;;;;;;;;;;5036502;28;20057;-57
2022/11/21 04:13:56;;;;;;;20.52;9.07;;;;;;;;;;5046077;28;20549;-59
2022/11/21 04:16:26;;;;;;;22.88;9.80;;;;;;;;;;5036530;28;20171;-59
2022/11/21 04:18:53;;;;;;;22.85;9.38;;;;;;;;;;5039116;28;20091;-59
2022/11/21 04:21:21;;;;;;;25.00;9.18;;;;;;;;;;5056341;28;20128;-59
2022/11/21 04:23:47;;;;;;;27.73;10.00;;;;;;;;;;5056028;28;20131;-58
2022/11/21 04:26:17;;;;;;;24.33;10.02;;;;;;;;;;5055856;28;20060;-59
2022/11/21 04:28:57;;;;;;;20.25;9.05;;;;;;;;;;5038430;28;20068;-59
2022/11/21 04:31:25;;;;;;;20.08;8.50;;;;;;;;;;5049261;28;20065;-58
2022/11/21 04:33:55;;;;;;;24.13;9.95;;;;;;;;;;5036340;28;20051;-59
2022/11/21 04:36:22;;;;;;;22.73;10.55;;;;;;;;;;5045554;28;20053;-59
2022/11/21 04:38:50;;;;;;;25.27;10.10;;;;;;;;;;5036965;28;20045;-59
2022/11/21 04:41:16;;;;;;;22.20;9.18;;;;;;;;;;5035888;28;20061;-58
2022/11/21 04:43:45;;;;;;;23.23;11.00;;;;;;;;;;5041503;28;20052;-59
2022/11/21 04:46:22;;;;;;;23.70;10.25;;;;;;;;;;5039401;28;20045;-59
2022/11/21 04:48:48;;;;;;;23.50;10.18;;;;;;;;;;5045827;28;20049;-58
2022/11/21 04:51:16;;;;;;;20.95;9.43;;;;;;;;;;5054358;28;20057;-59
2022/11/21 04:53:43;;;;;;;24.80;10.02;;;;;;;;;;5048666;28;20056;-59
2022/11/21 04:56:15;;;;;;;22.35;9.55;;;;;;;;;;5047935;28;20049;-58
2022/11/21 04:58:47;;;;;;;21.80;8.95;;;;;;;;;;5045228;28;20103;-58
2022/11/21 05:01:17;;;;;;;26.30;10.75;;;;;;;;;;5038530;28;20077;-57
2022/11/21 05:03:43;;;;;;;24.13;10.52;;;;;;;;;;5041581;28;20063;-59
2022/11/21 05:06:10;;;;;;;24.13;10.85;;;;;;;;;;5041696;28;20060;-59
2022/11/21 05:08:38;;;;;;;23.40;10.60;;;;;;;;;;5048002;28;20049;-56
2022/11/21 05:13:52;;;;;;;24.00;10.45;;;;;;;;;;5046449;28;20473;-57
2022/11/21 05:16:35;;;;;;;22.42;9.45;;;;;;;;;;5038240;28;20042;-59
2022/11/21 05:19:06;;;;;;;25.15;11.25;;;;;;;;;;5038163;28;20052;-59
2022/11/21 05:21:33;;;;;;;27.65;10.45;;;;;;;;;;5037741;28;20057;-59
2022/11/21 05:24:00;;;;;;;23.83;10.73;;;;;;;;;;5046442;28;20057;-59
2022/11/21 05:26:26;;;;;;;25.85;10.15;;;;;;;;;;5054920;28;20057;-58
2022/11/21 05:28:56;;;;;;;26.25;10.93;;;;;;;;;;5051104;28;20394;-59
2022/11/21 05:31:35;;;;;;;25.63;10.93;;;;;;;;;;5054878;28;20048;-59
2022/11/21 05:34:03;;;;;;;22.90;9.95;;;;;;;;;;5048856;28;20056;-59
2022/11/21 05:36:31;;;;;;;27.95;11.82;;;;;;;;;;5050648;28;20059;-59
2022/11/21 05:38:57;;;;;;;30.15;11.48;;;;;;;;;;5034844;28;20045;-59
2022/11/21 05:41:24;;;;;;;23.60;9.88;;;;;;;;;;5036868;28;20134;-59
2022/11/21 05:43:49;;;;;;;20.85;9.75;;;;;;;;;;5046425;28;20048;-57
2022/11/21 05:46:16;;;;;;;21.30;9.55;;;;;;;;;;5039073;28;20056;-59
2022/11/21 05:48:48;;;;;;;24.10;10.23;;;;;;;;;;5037983;28;20045;-59
2022/11/21 05:51:16;;;;;;;25.38;10.80;;;;;;;;;;5044347;28;20058;-59
2022/11/21 05:53:44;;;;;;;26.48;11.35;;;;;;;;;;5037713;28;20049;-59
2022/11/21 05:56:13;;;;;;;26.15;10.75;;;;;;;;;;5048519;28;20049;-59
2022/11/21 05:58:49;;;;;;;24.88;12.02;;;;;;;;;;5034227;28;20417;-59
2022/11/21 06:03:25;;;;;;;22.77;9.23;;;;;;;;;;5034584;28;20057;-59
2022/11/21 06:04:25;;;;;;;27.40;11.55;;;;;;;;;;5037627;28;20057;-58
2022/11/21 06:06:52;;;;;;;25.33;10.52;;;;;;;;;;5040492;28;20046;-59
2022/11/21 06:09:18;;;;;;;26.58;10.65;;;;;;;;;;5045591;28;20053;-58
2022/11/21 06:11:44;;;;;;;30.52;12.65;;;;;;;;;;5034958;28;20053;-59
2022/11/21 06:14:13;;;;;;;25.35;10.95;;;;;;;;;;5048498;28;20078;-59
2022/11/21 06:16:40;;;;;;;24.60;10.63;;;;;;;;;;5045055;28;20049;-58
2022/11/21 06:19:08;;;;;;;27.20;10.95;;;;;;;;;;5038054;28;20796;-60
2022/11/21 06:21:49;;;;;;;27.15;12.15;;;;;;;;;;5043724;28;20057;-59
2022/11/21 06:24:17;;;;;;;25.33;10.23;;;;;;;;;;5035346;28;20053;-59
2022/11/21 06:26:47;;;;;;;29.30;11.27;;;;;;;;;;5033757;28;20053;-59
2022/11/21 06:29:15;;;;;;;24.88;10.88;;;;;;;;;;5033654;28;20200;-59
2022/11/21 06:31:43;;;;;;;22.15;10.65;;;;;;;;;;5041669;28;20041;-59
2022/11/21 06:34:09;;;;;;;23.90;10.07;;;;;;;;;;5035633;28;20045;-60
2022/11/21 06:36:39;;;;;;;23.38;10.25;;;;;;;;;;5042332;28;20061;-59
2022/11/21 06:39:05;;;;;;;21.25;10.73;;;;;;;;;;5033534;28;20064;-56
2022/11/21 06:41:32;;;;;;;22.65;10.65;;;;;;;;;;5033964;28;20057;-58
2022/11/21 06:44:00;;;;;;;24.63;10.10;;;;;;;;;;5042264;28;20053;-59
2022/11/21 06:46:28;;;;;;;27.05;11.25;;;;;;;;;;5042809;28;20140;-59
2022/11/21 06:48:54;;;;;;;23.98;10.48;;;;;;;;;;5032954;28;20041;-60
2022/11/21 06:51:24;;;;;;;24.90;11.75;;;;;;;;;;5041830;28;20059;-60
2022/11/21 06:53:58;;;;;;;22.20;10.52;;;;;;;;;;5038748;28;20215;-60
2022/11/21 06:56:27;;;;;;;25.15;12.23;;;;;;;;;;5039171;28;20480;-59
2022/11/21 06:58:54;;;;;;;23.73;10.82;;;;;;;;;;5033390;28;20045;-59
2022/11/21 07:01:22;;;;;;;24.73;11.52;;;;;;;;;;5041058;28;20048;-60
2022/11/21 07:03:50;;;;;;;26.05;12.00;;;;;;;;;;5032935;28;20060;-59
2022/11/21 07:06:18;;;;;;;30.67;11.80;;;;;;;;;;5042643;28;20436;-59
2022/11/21 07:08:46;;;;;;;25.58;11.80;;;;;;;;;;5039484;28;20052;-59
2022/11/21 07:11:18;;;;;;;27.63;11.18;;;;;;;;;;5035686;28;20537;-59
2022/11/21 07:13:48;;;;;;;23.98;11.27;;;;;;;;;;5044213;28;20063;-59
2022/11/21 07:16:14;;;;;;;31.67;13.30;;;;;;;;;;5038188;28;20056;-63
2022/11/21 07:18:43;;;;;;;29.55;11.98;;;;;;;;;;5032998;28;20048;-63
2022/11/21 07:21:11;;;;;;;30.60;12.57;;;;;;;;;;5043427;28;20048;-60
2022/11/21 07:23:39;;;;;;;28.50;12.27;;;;;;;;;;5042047;28;20372;-62
2022/11/21 07:26:06;;;;;;;24.17;10.70;;;;;;;;;;5045554;28;20048;-59
2022/11/21 07:28:35;;;;;;;24.67;10.02;;;;;;;;;;5040542;28;20048;-60
2022/11/21 07:31:02;;;;;;;27.75;11.68;;;;;;;;;;5040968;28;20055;-62
2022/11/21 07:33:29;;;;;;;26.05;12.48;;;;;;;;;;5040262;28;20062;-62
2022/11/21 07:35:55;;;;;;;24.20;11.13;;;;;;;;;;5038819;28;20059;-62
2022/11/21 07:38:21;;;;;;;24.65;11.35;;;;;;;;;;5041207;28;20045;-62
2022/11/21 07:40:48;;;;;;;24.77;10.80;;;;;;;;;;5046641;28;20041;-62
2022/11/21 07:43:17;;;;;;;23.83;10.70;;;;;;;;;;5037818;28;20052;-62
2022/11/21 07:45:50;;;;;;;24.73;11.18;;;;;;;;;;5051771;28;20048;-62
2022/11/21 07:48:17;;;;;;;24.77;10.77;;;;;;;;;;5041429;28;20053;-62
2022/11/21 07:50:45;;;;;;;25.38;10.63;;;;;;;;;;5031233;28;20481;-63
2022/11/21 07:53:15;;;;;;;24.50;10.45;;;;;;;;;;5048845;28;20059;-62
2022/11/21 07:55:45;;;;;;;26.33;10.68;;;;;;;;;;5050588;28;20450;-64
2022/11/21 07:58:14;;;;;;;22.70;11.38;;;;;;;;;;5040208;28;20124;-64
2022/11/21 08:00:44;;;;;;;25.45;11.75;;;;;;;;;;5044600;28;20414;-62
2022/11/21 08:03:14;;;;;;;24.08;10.70;;;;;;;;;;5045636;28;20114;-60
2022/11/21 08:05:42;;;;;;;22.35;10.15;;;;;;;;;;5033844;28;20050;-61
2022/11/21 08:08:10;;;;;;;26.95;10.82;;;;;;;;;;5037246;28;20056;-62
2022/11/21 08:10:37;;;;;;;25.33;10.80;;;;;;;;;;5037754;28;20474;-59
2022/11/21 08:13:05;;;;;;;23.13;9.70;;;;;;;;;;5043349;28;20052;-63
2022/11/21 08:15:31;;;;;;;23.92;11.10;;;;;;;;;;5050932;28;20366;-63
2022/11/21 08:17:58;;;;;;;25.38;11.68;;;;;;;;;;5038211;28;20050;-63
2022/11/21 08:20:30;;;;;;;21.10;9.35;;;;;;;;;;5044613;28;20060;-65
2022/11/21 08:22:57;;;;;;;27.00;11.15;;;;;;;;;;5044970;28;20045;-65
2022/11/21 08:25:25;;;;;;;28.88;12.55;;;;;;;;;;5037385;28;20057;-63
2022/11/21 08:28:03;;;;;;;30.65;12.23;;;;;;;;;;5035284;28;20041;-63
2022/11/21 08:30:33;;;;;;;31.05;12.60;;;;;;;;;;5042202;28;20466;-64
2022/11/21 08:33:01;;;;;;;29.02;12.90;;;;;;;;;;5041879;28;20080;-63
2022/11/21 08:35:31;;;;;;;34.78;14.75;;;;;;;;;;5032417;28;20463;-64
2022/11/21 08:37:59;;;;;;;29.10;13.27;;;;;;;;;;5048089;28;20053;-63
2022/11/21 08:40:30;;;;;;;29.02;12.02;;;;;;;;;;5040187;28;20052;-63
2022/11/21 08:43:00;;;;;;;32.75;13.00;;;;;;;;;;5046293;28;20448;-65
2022/11/21 08:45:28;;;;;;;31.10;13.73;;;;;;;;;;5050489;28;20064;-64
2022/11/21 08:47:54;;;;;;;34.70;14.80;;;;;;;;;;5050114;28;20048;-63
2022/11/21 08:50:23;;;;;;;27.48;12.30;;;;;;;;;;5042842;28;20049;-65
2022/11/21 08:52:53;;;;;;;35.90;15.15;;;;;;;;;;5041450;28;20152;-64
2022/11/21 08:55:23;;;;;;;34.35;14.75;;;;;;;;;;5052084;28;20055;-59
2022/11/21 08:57:50;;;;;;;34.38;15.52;;;;;;;;;;5044499;28;20045;-62
2022/11/21 09:00:27;;;;;;;38.35;17.58;;;;;;;;;;5039476;28;20069;-61
2022/11/21 09:02:54;;;;;;;40.47;19.77;;;;;;;;;;5040288;28;20385;-58
2022/11/21 09:05:20;;;;;;;34.55;15.65;;;;;;;;;;5048919;28;20131;-60
2022/11/21 09:07:47;;;;;;;39.80;18.40;;;;;;;;;;5047928;28;20123;-57
2022/11/21 09:10:18;;;;;;;43.55;18.10;;;;;;;;;;5036432;28;20054;-60
2022/11/21 09:12:46;;;;;;;44.08;19.60;;;;;;;;;;5049032;28;20450;-58
2022/11/21 09:18:08;;;;;;;41.85;19.23;;;;;;;;;;5037769;28;20136;-61
2022/11/21 09:20:41;;;;;;;37.20;18.05;;;;;;;;;;5043273;28;20053;-59
2022/11/21 09:23:10;;;;;;;48.40;20.23;;;;;;;;;;5050863;28;20107;-60
2022/11/21 09:25:43;;;;;;;50.83;20.63;;;;;;;;;;5046343;28;20088;-54
2022/11/21 09:28:10;;;;;;;49.53;21.75;;;;;;;;;;5041986;28;20581;-61
2022/11/21 09:30:39;;;;;;;57.63;25.42;;;;;;;;;;5047366;28;20085;-61
2022/11/21 09:33:06;;;;;;;55.60;23.52;;;;;;;;;;5050038;28;20052;-61
2022/11/21 09:35:33;;;;;;;53.03;25.08;;;;;;;;;;5047255;28;20069;-62
2022/11/21 09:38:00;;;;;;;50.63;23.48;;;;;;;;;;5050137;28;20045;-61
2022/11/21 09:40:26;;;;;;;50.00;23.90;;;;;;;;;;5049117;28;20132;-59
2022/11/21 09:43:06;;;;;;;62.50;23.50;;;;;;;;;;5054370;28;20040;-57
2022/11/21 09:45:37;;;;;;;50.90;24.45;;;;;;;;;;5052229;28;20053;-63
2022/11/21 09:48:08;;;;;;;61.42;26.10;;;;;;;;;;5048673;28;20045;-58
2022/11/21 09:50:44;;;;;;;67.50;27.75;;;;;;;;;;5053748;28;20099;-60
2022/11/21 09:53:14;;;;;;;67.20;29.70;;;;;;;;;;5049241;28;20045;-58
2022/11/21 09:55:42;;;;;;;71.13;29.45;;;;;;;;;;5053522;28;20383;-63
2022/11/21 09:58:19;;;;;;;57.80;26.20;;;;;;;;;;5052089;28;20076;-57
2022/11/21 10:00:50;;;;;;;61.53;25.85;;;;;;;;;;5051817;28;20359;-64
2022/11/21 10:03:18;;;;;;;57.20;26.45;;;;;;;;;;5053187;28;20049;-63
2022/11/21 10:05:48;;;;;;;55.58;25.85;;;;;;;;;;5049959;28;20055;-64
2022/11/21 10:08:19;;;;;;;64.57;28.88;;;;;;;;;;5051717;28;20049;-65
2022/11/21 10:11:06;;;;;;;57.67;27.70;;;;;;;;;;5054076;28;20061;-57
2022/11/21 10:13:44;;;;;;;59.47;26.35;;;;;;;;;;5051675;28;20424;-57
2022/11/21 10:16:19;;;;;;;60.90;26.20;;;;;;;;;;5059025;28;20053;-56
2022/11/21 10:18:58;;;;;;;63.08;25.38;;;;;;;;;;5057315;28;20053;-63
2022/11/21 10:21:36;;;;;;;61.22;26.02;;;;;;;;;;5053139;28;20485;-60
2022/11/21 10:24:07;;;;;;;60.53;26.08;;;;;;;;;;5048997;28;20365;-60
2022/11/21 10:26:41;;;;;;;61.53;25.20;;;;;;;;;;5052279;28;20049;-58
2022/11/21 10:29:17;;;;;;;57.80;23.67;;;;;;;;;;5050513;28;20045;-59
2022/11/21 10:31:59;;;;;;;65.38;27.05;;;;;;;;;;5059407;28;20054;-60
2022/11/21 10:34:30;;;;;;;61.50;29.23;;;;;;;;;;5048028;28;20053;-61
2022/11/21 10:36:58;;;;;;;74.88;33.28;;;;;;;;;;5050498;28;20075;-62
2022/11/21 10:39:32;;;;;;;63.30;27.33;;;;;;;;;;5056186;28;20052;-61
2022/11/21 10:42:02;;;;;;;64.97;26.85;;;;;;;;;;5046052;28;20079;-61
2022/11/21 10:47:26;;;;;;;54.80;26.08;;;;;;;;;;5050509;28;20183;-58
2022/11/21 10:49:57;;;;;;;62.97;27.17;;;;;;;;;;5045919;28;20053;-58
2022/11/21 10:52:26;;;;;;;61.58;26.98;;;;;;;;;;5051373;28;20057;-59
2022/11/21 10:55:05;;;;;;;63.22;27.58;;;;;;;;;;5048652;28;20049;-58
2022/11/21 10:57:35;;;;;;;56.95;24.67;;;;;;;;;;5044890;28;20136;-60
2022/11/21 11:00:19;;;;;;;63.08;28.17;;;;;;;;;;5046346;28;20118;-57
2022/11/21 11:03:03;;;;;;;64.57;27.70;;;;;;;;;;5049992;28;20476;-59
2022/11/21 11:05:35;;;;;;;62.78;26.58;;;;;;;;;;5043097;28;20441;-59
2022/11/21 11:08:07;;;;;;;65.63;27.88;;;;;;;;;;5042788;28;20064;-58
2022/11/21 11:10:37;;;;;;;70.78;29.58;;;;;;;;;;5035581;28;20057;-60
2022/11/21 11:16:16;;;;;;;56.90;26.05;;;;;;;;;;5045469;28;20538;-63
2022/11/21 11:18:51;;;;;;;71.60;28.35;;;;;;;;;;5050058;28;20053;-63
2022/11/21 11:21:24;;;;;;;62.47;28.13;;;;;;;;;;5040262;28;20057;-64
2022/11/21 11:23:51;;;;;;;62.70;28.25;;;;;;;;;;5045338;28;20060;-64
2022/11/21 11:26:19;;;;;;;65.03;27.02;;;;;;;;;;5043527;28;20058;-64
2022/11/21 11:28:49;;;;;;;69.70;30.58;;;;;;;;;;5034022;28;20382;-64
2022/11/21 11:31:39;;;;;;;68.45;31.20;;;;;;;;;;5040423;28;20071;-61
2022/11/21 11:34:10;;;;;;;74.65;30.20;;;;;;;;;;5045394;28;20053;-58
2022/11/21 11:36:38;;;;;;;65.07;28.20;;;;;;;;;;5049119;28;20373;-66
2022/11/21 11:39:10;;;;;;;67.03;27.05;;;;;;;;;;5035915;28;20206;-66
2022/11/21 11:47:49;;;;;;;71.13;30.52;;;;;;;;;;4990077;28;20117;-59
2022/11/21 11:50:18;;;;;;;71.63;30.30;;;;;;;;;;4986491;28;20053;-57
2022/11/21 11:52:52;;;;;;;70.35;30.02;;;;;;;;;;4992684;28;20074;-57
2022/11/21 11:55:20;;;;;;;67.72;28.92;;;;;;;;;;4983588;28;20050;-60
2022/11/21 11:57:47;;;;;;;64.00;27.15;;;;;;;;;;4982244;28;20570;-60
2022/11/21 12:00:22;;;;;;;62.42;27.88;;;;;;;;;;4974227;28;20460;-59
2022/11/21 12:02:57;;;;;;;63.63;26.10;;;;;;;;;;4983270;28;20058;-60
2022/11/21 12:05:26;;;;;;;65.82;28.17;;;;;;;;;;4985681;28;20108;-62
2022/11/21 12:07:59;;;;;;;66.55;29.73;;;;;;;;;;4975596;28;20098;-63
2022/11/21 12:10:28;;;;;;;69.55;28.67;;;;;;;;;;4971733;28;20051;-62
2022/11/21 12:12:57;;;;;;;63.50;28.05;;;;;;;;;;4986075;28;20065;-65
2022/11/21 12:18:21;;;;;;;68.70;29.92;;;;;;;;;;4963261;28;20057;-63
2022/11/21 12:20:54;;;;;;;71.65;27.77;;;;;;;;;;4995593;28;20060;-63
2022/11/21 12:23:23;;;;;;;75.60;28.95;;;;;;;;;;5007579;28;20429;-60
2022/11/21 12:25:54;;;;;;;71.18;30.23;;;;;;;;;;5003965;28;20057;-56
2022/11/21 12:28:24;;;;;;;71.05;30.30;;;;;;;;;;5010086;28;20102;-55
2022/11/21 12:30:57;;;;;;;74.43;30.48;;;;;;;;;;5014649;28;20056;-57
2022/11/21 12:33:25;;;;;;;96.25;37.90;;;;;;;;;;5007069;28;20057;-58
2022/11/21 12:36:11;;;;;;;97.55;36.03;;;;;;;;;;5003502;28;20060;-58
2022/11/21 12:38:45;;;;;;;95.20;34.58;;;;;;;;;;5006218;28;20061;-60
2022/11/21 12:44:10;;;;;;;71.90;28.27;;;;;;;;;;5004758;28;20180;-61
2022/11/21 12:46:44;;;;;;;65.03;28.33;;;;;;;;;;5011131;28;20054;-62
2022/11/21 12:55:23;;;;;;;69.95;29.30;;;;;;;;;;4945704;29;20047;-58
2022/11/21 12:57:57;;;;;;;67.78;28.08;;;;;;;;;;4948341;29;20218;-59
2022/11/21 13:00:28;;;;;;;75.53;28.48;;;;;;;;;;4953907;29;20083;-60
2022/11/21 13:03:17;;;;;;;69.07;31.23;;;;;;;;;;4950882;29;20051;-57
2022/11/21 13:05:48;;;;;;;65.68;28.58;;;;;;;;;;4944403;29;20051;-58
2022/11/21 13:08:18;;;;;;;72.35;28.63;;;;;;;;;;4945292;29;20055;-60
2022/11/21 13:10:48;;;;;;;66.70;27.77;;;;;;;;;;4938831;29;20059;-65
2022/11/21 13:13:23;;;;;;;70.63;30.00;;;;;;;;;;4948185;29;20062;-60
2022/11/21 13:15:53;;;;;;;66.03;29.42;;;;;;;;;;4979500;28;20053;-59
2022/11/21 13:18:22;;;;;;;70.55;29.23;;;;;;;;;;5039307;28;20064;-59
2022/11/21 13:20:52;;;;;;;75.25;29.52;;;;;;;;;;5038047;28;20037;-62
2022/11/21 13:23:35;;;;;;;71.43;29.95;;;;;;;;;;5049086;28;20425;-64
2022/11/21 13:26:01;;;;;;;69.28;30.63;;;;;;;;;;5039217;28;20378;-59
2022/11/21 13:28:36;;;;;;;73.50;30.35;;;;;;;;;;5043442;28;20057;-55
2022/11/21 13:31:05;;;;;;;76.10;31.20;;;;;;;;;;5040658;28;20053;-58
2022/11/21 13:33:50;;;;;;;71.90;30.40;;;;;;;;;;5042262;28;20055;-59
2022/11/21 13:36:37;;;;;;;65.40;28.30;;;;;;;;;;5039748;28;20049;-61
2022/11/21 13:39:34;;;;;;;69.57;31.00;;;;;;;;;;5040015;28;20045;-58
2022/11/21 13:44:45;;;;;;;75.97;31.15;;;;;;;;;;5034671;28;20164;-59
2022/11/21 13:47:29;;;;;;;68.88;30.10;;;;;;;;;;5049884;28;20052;-59
2022/11/21 13:49:58;;;;;;;79.90;31.23;;;;;;;;;;5043897;28;20045;-60
2022/11/21 13:52:28;;;;;;;71.28;29.20;;;;;;;;;;5039919;28;20045;-59
2022/11/21 13:55:16;;;;;;;71.60;30.25;;;;;;;;;;5044169;28;20450;-59
2022/11/21 13:57:49;;;;;;;69.50;29.45;;;;;;;;;;5042624;28;20049;-61
2022/11/21 14:00:24;;;;;;;70.38;29.00;;;;;;;;;;5044790;28;20041;-61
2022/11/21 14:02:51;;;;;;;;;;;;;;;;;;5050282;28;20386;-60
2022/11/21 14:05:24;;;;;;;79.78;30.58;;;;;;;;;;5045957;28;20342;-57
2022/11/21 14:07:52;;;;;;;82.72;31.10;;;;;;;;;;5048587;28;20053;-61
2022/11/21 14:10:20;;;;;;;72.18;29.23;;;;;;;;;;5048619;28;20146;-58
2022/11/21 14:12:47;;;;;;;76.90;31.60;;;;;;;;;;5053312;28;20090;-57
2022/11/21 14:15:23;;;;;;;69.18;29.80;;;;;;;;;;5047826;28;20065;-62
2022/11/21 14:17:50;;;;;;;76.82;29.75;;;;;;;;;;5044961;28;20084;-63
2022/11/21 14:20:18;;;;;;;85.78;32.60;;;;;;;;;;5041573;28;20052;-60
2022/11/21 14:22:47;;;;;;;73.40;31.15;;;;;;;;;;5046292;28;20110;-59
2022/11/21 14:25:16;;;;;;;80.90;32.40;;;;;;;;;;5052360;28;20064;-60
2022/11/21 14:27:45;;;;;;;81.38;32.63;;;;;;;;;;5035419;28;20057;-63
2022/11/21 14:30:27;;;;;;;78.78;31.80;;;;;;;;;;5045639;28;20049;-64
2022/11/21 14:32:53;;;;;;;80.18;32.60;;;;;;;;;;5045489;28;20049;-64
2022/11/21 14:35:21;;;;;;;76.13;30.77;;;;;;;;;;5044928;28;20386;-62
2022/11/21 14:37:48;;;;;;;80.43;33.00;;;;;;;;;;5047160;28;20150;-63
2022/11/21 14:40:20;;;;;;;78.55;32.92;;;;;;;;;;5048413;28;20453;-62
2022/11/21 14:42:46;;;;;;;82.18;33.20;;;;;;;;;;5041434;28;20083;-61
2022/11/21 14:45:16;;;;;;;86.55;32.50;;;;;;;;;;5049394;28;20055;-65
2022/11/21 14:47:49;;;;;;;77.65;31.30;;;;;;;;;;5050541;28;20060;-65
2022/11/21 14:50:25;;;;;;;79.63;32.00;;;;;;;;;;5045796;28;20753;-66
2022/11/21 14:52:56;;;;;;;75.10;31.20;;;;;;;;;;5035387;28;20073;-59
2022/11/21 14:55:25;;;;;;;78.97;30.58;;;;;;;;;;5046411;28;20513;-63
2022/11/21 14:57:51;;;;;;;77.75;30.92;;;;;;;;;;5040833;28;20052;-61
2022/11/21 15:00:19;;;;;;;74.90;29.75;;;;;;;;;;5047539;28;20052;-62
2022/11/21 15:02:46;;;;;;;81.65;31.83;;;;;;;;;;5048245;28;20056;-61
2022/11/21 15:05:14;;;;;;;89.03;36.17;;;;;;;;;;5044029;28;20060;-61
2022/11/21 15:07:41;;;;;;;77.70;33.92;;;;;;;;;;5042367;28;20049;-61
2022/11/21 15:10:12;;;;;;;88.93;33.13;;;;;;;;;;5032917;28;20037;-61
2022/11/21 15:12:43;;;;;;;71.28;29.95;;;;;;;;;;5048791;28;20048;-61